Kasagimaru — JJ3905 — position and weather

sailwx.info

Track history (hours):
 
Tides and Currents Weather Stations Pressure Air Temp Water Temp Dewpoint Dewpoint Depression Visibility Wind Speed Wind Dir Waves Ship Positions

Kasagimaru

Last reported at 2017-Nov-20 00:27 UTC. Time now 2017-Nov-22 20:34 UTC.
Position N 34°33' E 135°20'.

Length 42 m; draft 3.5 m.

Type: Tug. MMSI: 431300268.

Date/timePositionNaut miles runAvg speedWind from/ knotsBaromVisibWave heightAir tempDewpointWater temp
2017-Nov-20 00:27N 34°33' E 135°20'1 1.8
2017-Nov-19 23:59N 34°34' E 135°21'5 1.2
2017-Nov-19 19:48N 34°33' E 135°27'0 0.0
2017-Nov-19 19:12N 34°33' E 135°27'0 0.0
2017-Nov-19 19:00N 34°33' E 135°27'0 0.0
2017-Nov-19 18:30N 34°33' E 135°27'0 0.0
2017-Nov-19 17:24N 34°33' E 135°27'0 0.0
2017-Nov-19 17:00N 34°33' E 135°27'0 0.0
2017-Nov-19 16:30N 34°33' E 135°27'0 0.0
2017-Nov-19 16:00N 34°33' E 135°27'0 0.0
2017-Nov-19 14:48N 34°33' E 135°27'0 0.0
2017-Nov-19 14:18N 34°33' E 135°27'0 0.0
2017-Nov-19 14:00N 34°33' E 135°27'0 0.0
2017-Nov-19 13:24N 34°33' E 135°27'1 0.1
2017-Nov-19 03:13N 34°33' E 135°26'611.1
2017-Nov-19 02:41N 34°34' E 135°19'0 0.8
2017-Nov-19 02:16N 34°34' E 135°18'310.2
2017-Nov-19 02:00N 34°33' E 135°22'2 3.8
2017-Nov-19 01:21N 34°33' E 135°25'2 4.7
2017-Nov-19 00:50N 34°33' E 135°22'2 7.0
2017-Nov-19 00:30N 34°33' E 135°19'1 1.9
2017-Nov-19 00:00N 34°33' E 135°18'611.5
2017-Nov-18 23:30N 34°29' E 135°12'1713.7
2017-Nov-18 22:16N 34°16' E 134°59'313.2
2017-Nov-18 22:01N 34°13' E 134°59'3 5.6
2017-Nov-18 21:28N 34°10' E 134°60'  
2017-Nov-15 08:25N 34°14' E 134°58'710.0
2017-Nov-15 07:45N 34°19' E 135°04'412.5
2017-Nov-15 07:23N 34°22' E 135°09'612.6
2017-Nov-15 06:54N 34°25' E 135°15'612.7
2017-Nov-15 06:28N 34°29' E 135°19'612.5
2017-Nov-15 05:59N 34°33' E 135°24'1 2.3
2017-Nov-15 05:21N 34°33' E 135°26'1 0.1
2017-Nov-14 21:56N 34°33' E 135°27'0 0.0
2017-Nov-14 19:20N 34°33' E 135°27'0 0.0
2017-Nov-14 18:38N 34°33' E 135°27'0 0.0
2017-Nov-14 18:14N 34°33' E 135°27'0 0.0
2017-Nov-14 17:56N 34°33' E 135°27'0 0.0
2017-Nov-14 16:56N 34°33' E 135°27'0 0.0
2017-Nov-14 16:26N 34°33' E 135°27'0 0.0
2017-Nov-14 15:44N 34°33' E 135°27'0 0.0
2017-Nov-14 15:26N 34°33' E 135°27'0 0.0
2017-Nov-14 14:56N 34°33' E 135°27'0 0.0
2017-Nov-14 13:32N 34°33' E 135°27'0 0.0
2017-Nov-14 13:20N 34°33' E 135°27'0 0.0
2017-Nov-14 12:50N 34°33' E 135°27'0 0.0
2017-Nov-14 12:26N 34°33' E 135°27'0 0.0
2017-Nov-14 10:44N 34°33' E 135°27'0 0.0
2017-Nov-14 10:26N 34°33' E 135°27'0 0.0
2017-Nov-14 06:42N 34°33' E 135°27'0 2.1
2017-Nov-14 06:29N 34°33' E 135°26'0 0.0
2017-Nov-14 06:00N 34°33' E 135°26'0 0.1
2017-Nov-14 05:30N 34°33' E 135°26'1 2.4
2017-Nov-14 04:59N 34°33' E 135°25'4 7.2
2017-Nov-14 04:28N 34°34' E 135°20'1 1.6
2017-Nov-14 04:00N 34°34' E 135°21'5 9.0
2017-Nov-14 03:29N 34°33' E 135°27'0 0.1
2017-Nov-14 02:58N 34°33' E 135°27'0 0.0
2017-Nov-14 00:16N 34°33' E 135°27'0 0.0
2017-Nov-13 23:39N 34°33' E 135°27'0 0.0
2017-Nov-13 23:28N 34°33' E 135°27'0 0.0
2017-Nov-13 22:56N 34°33' E 135°27'3 0.1
2017-Nov-13 00:12N 34°31' E 135°24'2 8.2
2017-Nov-13 00:00N 34°32' E 135°23'611.6
2017-Nov-12 23:28N 34°26' E 135°19'1 1.1
2017-Nov-12 22:58N 34°26' E 135°19'1 2.7
2017-Nov-12 22:30N 34°27' E 135°19'1 2.4
2017-Nov-12 21:59N 34°26' E 135°19'510.7
2017-Nov-12 21:30N 34°31' E 135°21'5 9.7
2017-Nov-12 21:00N 34°33' E 135°27'0 0.2
2017-Nov-12 20:30N 34°33' E 135°27'0 0.0
2017-Nov-12 19:52N 34°33' E 135°27'0 0.0
2017-Nov-12 19:28N 34°33' E 135°27'0 0.0
2017-Nov-12 18:58N 34°33' E 135°27'0 0.0
2017-Nov-12 18:10N 34°33' E 135°27'0 0.0
2017-Nov-12 17:52N 34°33' E 135°27'0 0.0
2017-Nov-12 17:28N 34°33' E 135°27'0 0.0
2017-Nov-12 08:47N 34°33' E 135°27'410.9
2017-Nov-12 08:22N 34°33' E 135°21'511.9
2017-Nov-12 08:00N 34°34' E 135°16'612.9
2017-Nov-12 07:30N 34°35' E 135°08'611.3
2017-Nov-12 07:00N 34°37' E 135°02'5 0.9
2017-Nov-12 00:46N 34°37' E 134°55'410.9
2017-Nov-12 00:26N 34°37' E 134°60'4 9.6
2017-Nov-12 00:00N 34°36' E 135°04'510.3
2017-Nov-11 23:30N 34°35' E 135°10'510.6
2017-Nov-11 23:00N 34°34' E 135°17'610.9
2017-Nov-11 22:30N 34°34' E 135°23'3 5.2
2017-Nov-11 22:00N 34°33' E 135°27'0 0.0
2017-Nov-11 20:16N 34°33' E 135°27'0 0.0
2017-Nov-11 19:46N 34°33' E 135°27'0 0.0
2017-Nov-11 06:45N 34°33' E 135°27'2 8.7
2017-Nov-11 06:30N 34°34' E 135°24'510.0
2017-Nov-11 06:00N 34°39' E 135°24'2 3.3
2017-Nov-11 05:30N 34°37' E 135°23'4 8.2
2017-Nov-11 04:59N 34°33' E 135°25'1 0.2
2017-Nov-10 23:46N 34°33' E 135°27'0 0.0
2017-Nov-10 23:30N 34°33' E 135°27'0 0.0
2017-Nov-10 23:00N 34°33' E 135°27'0 0.0
2017-Nov-10 22:30N 34°33' E 135°27'0 0.0
2017-Nov-10 21:59N 34°33' E 135°27'0 0.0
2017-Nov-10 21:29N 34°33' E 135°27'0 0.0
2017-Nov-10 20:46N 34°33' E 135°27'0 0.0
2017-Nov-10 20:30N 34°33' E 135°27'0 0.0
2017-Nov-10 20:00N 34°33' E 135°27'0 0.0
2017-Nov-10 19:22N 34°33' E 135°27'0 0.0
2017-Nov-10 19:00N 34°33' E 135°27'0 0.0
2017-Nov-10 18:23N 34°33' E 135°27'0 0.0
2017-Nov-10 18:00N 34°33' E 135°27'0 0.0
2017-Nov-10 17:20N 34°33' E 135°27'0 0.0
2017-Nov-10 16:44N 34°33' E 135°27'0 0.0
2017-Nov-10 16:30N 34°33' E 135°27'0 0.0
2017-Nov-10 16:00N 34°33' E 135°27'0 0.0
2017-Nov-10 15:26N 34°33' E 135°27'0 0.0
2017-Nov-10 14:58N 34°33' E 135°27'0 0.0
2017-Nov-10 14:29N 34°33' E 135°27'0 0.0
2017-Nov-10 14:00N 34°33' E 135°27'0 0.0
2017-Nov-10 13:29N 34°33' E 135°27'0 0.0
2017-Nov-10 12:53N 34°33' E 135°27'0 0.0
2017-Nov-10 12:21N 34°33' E 135°27'0 0.0
2017-Nov-10 03:10N 34°33' E 135°27'2 9.4
2017-Nov-10 02:55N 34°34' E 135°24'511.1
2017-Nov-10 02:30N 34°39' E 135°25'0 1.0
2017-Nov-10 01:59N 34°39' E 135°25'4 7.1
2017-Nov-10 01:29N 34°37' E 135°21'1 2.1
2017-Nov-10 00:57N 34°37' E 135°20'3 6.5
2017-Nov-10 00:30N 34°37' E 135°16'  
Track history (hours):
 
Tides and Currents Weather Stations Pressure Air Temp Water Temp Dewpoint Dewpoint Depression Visibility Wind Speed Wind Dir Waves Ship Positions

Kasagimaru

Last reported at 2017-Nov-20 00:27 UTC. Time now 2017-Nov-22 20:34 UTC.
Position N 34°33' E 135°20'.

Length 42 m; draft 3.5 m.

Type: Tug. MMSI: 431300268.

Date/timePositionNaut miles runAvg speedWind from/ knotsBaromVisibWave heightAir tempDewpointWater temp
2017-Nov-20 00:27N 34°33' E 135°20'1 1.8
2017-Nov-19 23:59N 34°34' E 135°21'5 1.2
2017-Nov-19 19:48N 34°33' E 135°27'0 0.0
2017-Nov-19 19:12N 34°33' E 135°27'0 0.0
2017-Nov-19 19:00N 34°33' E 135°27'0 0.0
2017-Nov-19 18:30N 34°33' E 135°27'0 0.0
2017-Nov-19 17:24N 34°33' E 135°27'0 0.0
2017-Nov-19 17:00N 34°33' E 135°27'0 0.0
2017-Nov-19 16:30N 34°33' E 135°27'0 0.0
2017-Nov-19 16:00N 34°33' E 135°27'0 0.0
2017-Nov-19 14:48N 34°33' E 135°27'0 0.0
2017-Nov-19 14:18N 34°33' E 135°27'0 0.0
2017-Nov-19 14:00N 34°33' E 135°27'0 0.0
2017-Nov-19 13:24N 34°33' E 135°27'1 0.1
2017-Nov-19 03:13N 34°33' E 135°26'611.1
2017-Nov-19 02:41N 34°34' E 135°19'0 0.8
2017-Nov-19 02:16N 34°34' E 135°18'310.2
2017-Nov-19 02:00N 34°33' E 135°22'2 3.8
2017-Nov-19 01:21N 34°33' E 135°25'2 4.7
2017-Nov-19 00:50N 34°33' E 135°22'2 7.0
2017-Nov-19 00:30N 34°33' E 135°19'1 1.9
2017-Nov-19 00:00N 34°33' E 135°18'611.5
2017-Nov-18 23:30N 34°29' E 135°12'1713.7
2017-Nov-18 22:16N 34°16' E 134°59'313.2
2017-Nov-18 22:01N 34°13' E 134°59'3 5.6
2017-Nov-18 21:28N 34°10' E 134°60'  
2017-Nov-15 08:25N 34°14' E 134°58'710.0
2017-Nov-15 07:45N 34°19' E 135°04'412.5
2017-Nov-15 07:23N 34°22' E 135°09'612.6
2017-Nov-15 06:54N 34°25' E 135°15'612.7
2017-Nov-15 06:28N 34°29' E 135°19'612.5
2017-Nov-15 05:59N 34°33' E 135°24'1 2.3
2017-Nov-15 05:21N 34°33' E 135°26'1 0.1
2017-Nov-14 21:56N 34°33' E 135°27'0 0.0
2017-Nov-14 19:20N 34°33' E 135°27'0 0.0
2017-Nov-14 18:38N 34°33' E 135°27'0 0.0
2017-Nov-14 18:14N 34°33' E 135°27'0 0.0
2017-Nov-14 17:56N 34°33' E 135°27'0 0.0
2017-Nov-14 16:56N 34°33' E 135°27'0 0.0
2017-Nov-14 16:26N 34°33' E 135°27'0 0.0
2017-Nov-14 15:44N 34°33' E 135°27'0 0.0
2017-Nov-14 15:26N 34°33' E 135°27'0 0.0
2017-Nov-14 14:56N 34°33' E 135°27'0 0.0
2017-Nov-14 13:32N 34°33' E 135°27'0 0.0
2017-Nov-14 13:20N 34°33' E 135°27'0 0.0
2017-Nov-14 12:50N 34°33' E 135°27'0 0.0
2017-Nov-14 12:26N 34°33' E 135°27'0 0.0
2017-Nov-14 10:44N 34°33' E 135°27'0 0.0
2017-Nov-14 10:26N 34°33' E 135°27'0 0.0
2017-Nov-14 06:42N 34°33' E 135°27'0 2.1
2017-Nov-14 06:29N 34°33' E 135°26'0 0.0
2017-Nov-14 06:00N 34°33' E 135°26'0 0.1
2017-Nov-14 05:30N 34°33' E 135°26'1 2.4
2017-Nov-14 04:59N 34°33' E 135°25'4 7.2
2017-Nov-14 04:28N 34°34' E 135°20'1 1.6
2017-Nov-14 04:00N 34°34' E 135°21'5 9.0
2017-Nov-14 03:29N 34°33' E 135°27'0 0.1
2017-Nov-14 02:58N 34°33' E 135°27'0 0.0
2017-Nov-14 00:16N 34°33' E 135°27'0 0.0
2017-Nov-13 23:39N 34°33' E 135°27'0 0.0
2017-Nov-13 23:28N 34°33' E 135°27'0 0.0
2017-Nov-13 22:56N 34°33' E 135°27'3 0.1
2017-Nov-13 00:12N 34°31' E 135°24'2 8.2
2017-Nov-13 00:00N 34°32' E 135°23'611.6
2017-Nov-12 23:28N 34°26' E 135°19'1 1.1
2017-Nov-12 22:58N 34°26' E 135°19'1 2.7
2017-Nov-12 22:30N 34°27' E 135°19'1 2.4
2017-Nov-12 21:59N 34°26' E 135°19'510.7
2017-Nov-12 21:30N 34°31' E 135°21'5 9.7
2017-Nov-12 21:00N 34°33' E 135°27'0 0.2
2017-Nov-12 20:30N 34°33' E 135°27'0 0.0
2017-Nov-12 19:52N 34°33' E 135°27'0 0.0
2017-Nov-12 19:28N 34°33' E 135°27'0 0.0
2017-Nov-12 18:58N 34°33' E 135°27'0 0.0
2017-Nov-12 18:10N 34°33' E 135°27'0 0.0
2017-Nov-12 17:52N 34°33' E 135°27'0 0.0
2017-Nov-12 17:28N 34°33' E 135°27'0 0.0
2017-Nov-12 08:47N 34°33' E 135°27'410.9
2017-Nov-12 08:22N 34°33' E 135°21'511.9
2017-Nov-12 08:00N 34°34' E 135°16'612.9
2017-Nov-12 07:30N 34°35' E 135°08'611.3
2017-Nov-12 07:00N 34°37' E 135°02'5 0.9
2017-Nov-12 00:46N 34°37' E 134°55'410.9
2017-Nov-12 00:26N 34°37' E 134°60'4 9.6
2017-Nov-12 00:00N 34°36' E 135°04'510.3
2017-Nov-11 23:30N 34°35' E 135°10'510.6
2017-Nov-11 23:00N 34°34' E 135°17'610.9
2017-Nov-11 22:30N 34°34' E 135°23'3 5.2
2017-Nov-11 22:00N 34°33' E 135°27'0 0.0
2017-Nov-11 20:16N 34°33' E 135°27'0 0.0
2017-Nov-11 19:46N 34°33' E 135°27'0 0.0
2017-Nov-11 06:45N 34°33' E 135°27'2 8.7
2017-Nov-11 06:30N 34°34' E 135°24'510.0
2017-Nov-11 06:00N 34°39' E 135°24'2 3.3
2017-Nov-11 05:30N 34°37' E 135°23'4 8.2
2017-Nov-11 04:59N 34°33' E 135°25'1 0.2
2017-Nov-10 23:46N 34°33' E 135°27'0 0.0
2017-Nov-10 23:30N 34°33' E 135°27'0 0.0
2017-Nov-10 23:00N 34°33' E 135°27'0 0.0
2017-Nov-10 22:30N 34°33' E 135°27'0 0.0
2017-Nov-10 21:59N 34°33' E 135°27'0 0.0
2017-Nov-10 21:29N 34°33' E 135°27'0 0.0
2017-Nov-10 20:46N 34°33' E 135°27'0 0.0
2017-Nov-10 20:30N 34°33' E 135°27'0 0.0
2017-Nov-10 20:00N 34°33' E 135°27'0 0.0
2017-Nov-10 19:22N 34°33' E 135°27'0 0.0
2017-Nov-10 19:00N 34°33' E 135°27'0 0.0
2017-Nov-10 18:23N 34°33' E 135°27'0 0.0
2017-Nov-10 18:00N 34°33' E 135°27'0 0.0
2017-Nov-10 17:20N 34°33' E 135°27'0 0.0
2017-Nov-10 16:44N 34°33' E 135°27'0 0.0
2017-Nov-10 16:30N 34°33' E 135°27'0 0.0
2017-Nov-10 16:00N 34°33' E 135°27'0 0.0
2017-Nov-10 15:26N 34°33' E 135°27'0 0.0
2017-Nov-10 14:58N 34°33' E 135°27'0 0.0
2017-Nov-10 14:29N 34°33' E 135°27'0 0.0
2017-Nov-10 14:00N 34°33' E 135°27'0 0.0
2017-Nov-10 13:29N 34°33' E 135°27'0 0.0
2017-Nov-10 12:53N 34°33' E 135°27'0 0.0
2017-Nov-10 12:21N 34°33' E 135°27'0 0.0
2017-Nov-10 03:10N 34°33' E 135°27'2 9.4
2017-Nov-10 02:55N 34°34' E 135°24'511.1
2017-Nov-10 02:30N 34°39' E 135°25'0 1.0
2017-Nov-10 01:59N 34°39' E 135°25'4 7.1
2017-Nov-10 01:29N 34°37' E 135°21'1 2.1
2017-Nov-10 00:57N 34°37' E 135°20'3 6.5
2017-Nov-10 00:30N 34°37' E 135°16'  

Dump ship's entire track history